Time;durP1;ratioP1;P1;durP2;ratioP2;P2;SDS_P1;SDS_P2;PMS_P1;PMS_P2;Temp;Humidity;BMP_temperature;BMP_pressure;BME280_temperature;BME280_humidity;BME280_pressure;Samples;Min_cycle;Max_cycle;Signal;HPM_P1;HPM_P2
2023/05/25 00:00:49;;;;;;;6.57;4.40;;;;;;;20.67;100.00;101274.81;2066513;28;20175;-63
2023/05/25 00:01:53;;;;;;;7.37;4.30;;;;;;;20.79;100.00;101299.09;2066233;28;20193;-64
2023/05/25 00:02:54;;;;;;;6.70;4.07;;;;;;;20.77;100.00;101295.22;2066636;28;20189;-64
2023/05/25 00:03:55;;;;;;;8.10;4.30;;;;;;;20.13;100.00;101198.59;2066249;28;20962;-64
2023/05/25 00:04:57;;;;;;;6.00;3.80;;;;;;;20.30;100.00;101237.03;2066393;28;20840;-64
2023/05/25 00:06:00;;;;;;;7.40;4.30;;;;;;;20.70;100.00;101295.59;2062440;28;20675;-64
2023/05/25 00:07:00;;;;;;;5.57;4.00;;;;;;;20.67;100.00;101294.50;2060910;28;20509;-64
2023/05/25 00:08:01;;;;;;;4.83;3.83;;;;;;;20.67;100.00;101300.16;2066196;28;20420;-63
2023/05/25 00:09:01;;;;;;;6.63;3.80;;;;;;;20.67;100.00;101290.94;2065470;28;20181;-64
2023/05/25 00:10:02;;;;;;;5.07;4.37;;;;;;;19.89;100.00;101178.94;2066348;28;20170;-64
2023/05/25 00:11:03;;;;;;;6.40;4.10;;;;;;;20.67;100.00;101296.56;2058863;28;20183;-64
2023/05/25 00:12:03;;;;;;;5.17;3.80;;;;;;;20.58;100.00;101294.59;2064329;28;20445;-64
2023/05/25 00:13:04;;;;;;;6.20;3.93;;;;;;;20.57;100.00;101289.47;2066352;28;20206;-64
2023/05/25 00:14:05;;;;;;;5.70;3.77;;;;;;;20.60;100.00;101299.75;2065892;28;20198;-64
2023/05/25 00:15:06;;;;;;;4.90;4.43;;;;;;;19.98;100.00;101217.47;2066384;28;20683;-63
2023/05/25 00:16:06;;;;;;;5.80;4.37;;;;;;;20.51;100.00;101303.44;2064630;28;20801;-63
2023/05/25 00:17:08;;;;;;;6.60;3.90;;;;;;;20.48;100.00;101304.44;2058527;28;20183;-64
2023/05/25 00:18:09;;;;;;;6.70;4.13;;;;;;;20.48;100.00;101309.28;2066002;28;20181;-63
2023/05/25 00:19:09;;;;;;;6.07;3.97;;;;;;;20.45;100.00;101304.59;2058413;28;20437;-63
2023/05/25 00:20:12;;;;;;;4.80;3.50;;;;;;;20.33;100.00;101283.94;2057938;28;20649;-64
2023/05/25 00:21:14;;;;;;;5.20;4.00;;;;;;;20.40;100.00;101296.81;2063472;28;20205;-64
2023/05/25 00:22:14;;;;;;;5.43;3.90;;;;;;;20.22;100.00;101282.94;2066392;28;20854;-64
2023/05/25 00:23:15;;;;;;;5.57;4.10;;;;;;;20.39;100.00;101304.50;2065980;28;20441;-64
2023/05/25 00:24:15;;;;;;;4.90;3.80;;;;;;;19.33;100.00;101142.56;2064319;28;20225;-64
2023/05/25 00:25:16;;;;;;;4.10;3.63;;;;;;;20.35;100.00;101301.09;2058909;28;20254;-64
2023/05/25 00:26:16;;;;;;;4.73;3.97;;;;;;;20.35;100.00;101305.94;2066420;28;20189;-64
2023/05/25 00:27:17;;;;;;;6.73;4.20;;;;;;;20.34;100.00;101305.19;2066225;28;20293;-63
2023/05/25 00:28:17;;;;;;;6.73;3.70;;;;;;;20.31;100.00;101299.75;2065712;28;20584;-64
2023/05/25 00:29:18;;;;;;;6.53;3.87;;;;;;;20.30;100.00;101306.63;2060141;28;20665;-64
2023/05/25 00:30:18;;;;;;;4.23;3.80;;;;;;;20.26;100.00;101295.56;2062167;28;20185;-64
2023/05/25 00:31:18;;;;;;;6.37;4.17;;;;;;;20.25;100.00;101301.66;2062329;28;20275;-64
2023/05/25 00:32:19;;;;;;;6.50;3.97;;;;;;;20.23;100.00;101302.16;2060093;28;20178;-64
2023/05/25 00:33:19;;;;;;;4.77;4.13;;;;;;;20.21;100.00;101295.47;2066071;28;20209;-64
2023/05/25 00:34:21;;;;;;;4.53;4.00;;;;;;;19.47;100.00;101186.00;2066159;28;20198;-64
2023/05/25 00:35:22;;;;;;;4.60;4.10;;;;;;;20.18;100.00;101307.66;2066337;28;20193;-64
2023/05/25 00:36:23;;;;;;;7.53;4.47;;;;;;;20.19;100.00;101303.59;2066302;28;20417;-64
2023/05/25 00:37:24;;;;;;;6.43;4.00;;;;;;;20.17;100.00;101306.88;2059869;28;20597;-63
2023/05/25 00:38:25;;;;;;;5.00;3.90;;;;;;;20.13;100.00;101308.34;2062884;28;20432;-64
2023/05/25 00:39:25;;;;;;;7.23;4.20;;;;;;;20.04;100.00;101309.16;2061976;28;20524;-64
2023/05/25 00:40:25;;;;;;;6.90;4.73;;;;;;;19.00;100.00;101157.91;2060664;28;20248;-64
2023/05/25 00:41:27;;;;;;;6.37;4.13;;;;;;;19.97;100.00;101314.38;2063848;28;20229;-64
2023/05/25 00:42:29;;;;;;;4.97;4.40;;;;;;;19.87;100.00;101307.25;2057815;28;20213;-64
2023/05/25 00:43:29;;;;;;;6.70;4.27;;;;;;;19.88;100.00;101314.44;2058087;28;20445;-64
2023/05/25 00:44:30;;;;;;;7.73;4.63;;;;;;;19.83;100.00;101317.91;2058019;28;21003;-64
2023/05/25 00:45:31;;;;;;;4.70;4.30;;;;;;;19.82;100.00;101308.72;2057790;28;20191;-64
2023/05/25 00:46:33;;;;;;;7.73;3.90;;;;;;;19.81;100.00;101314.81;2063523;28;20426;-63
2023/05/25 00:47:34;;;;;;;5.50;4.50;;;;;;;19.77;100.00;101305.75;2065886;28;20247;-63
2023/05/25 00:48:35;;;;;;;7.73;4.37;;;;;;;19.73;100.00;101314.38;2062331;28;20429;-63
2023/05/25 00:49:35;;;;;;;6.03;4.57;;;;;;;19.73;100.00;101305.16;2059854;28;20428;-64
2023/05/25 00:50:41;;;;;;;7.30;3.90;;;;;;;19.73;100.00;101310.78;2066160;28;20436;-63
2023/05/25 00:51:45;;;;;;;6.50;4.50;;;;;;;19.71;100.00;101314.06;2065239;28;20185;-64
2023/05/25 00:52:45;;;;;;;6.87;4.80;;;;;;;19.69;100.00;101316.59;2066090;28;20420;-64
2023/05/25 00:53:46;;;;;;;14.07;5.97;;;;;;;19.69;100.00;101310.97;2066018;28;20427;-64
2023/05/25 00:54:50;;;;;;;14.40;6.30;;;;;;;19.66;100.00;101317.53;2058805;28;20658;-63
2023/05/25 00:56:03;;;;;;;11.43;5.40;;;;;;;19.64;100.00;101313.66;2057621;28;20197;-64
2023/05/25 00:57:06;;;;;;;10.57;5.80;;;;;;;19.57;100.00;101312.00;2058278;28;20409;-63
2023/05/25 00:58:08;;;;;;;8.23;5.20;;;;;;;18.67;100.00;101160.72;2063680;28;20443;-63
2023/05/25 00:59:14;;;;;;;7.57;5.20;;;;;;;19.64;100.00;101313.66;2065474;28;20456;-63
2023/05/25 01:00:16;;;;;;;7.07;5.33;;;;;;;19.61;100.00;101320.25;2064981;28;20437;-64
2023/05/25 01:01:19;;;;;;;7.23;5.37;;;;;;;18.90;100.00;101220.97;2065964;28;20425;-64
2023/05/25 01:02:23;;;;;;;10.20;5.47;;;;;;;18.83;100.00;101212.91;2065530;28;20825;-64
2023/05/25 01:03:28;;;;;;;6.63;5.03;;;;;;;19.55;100.00;101328.53;2063630;28;20492;-64
2023/05/25 01:04:29;;;;;;;6.80;5.00;;;;;;;19.54;100.00;101324.19;2059661;28;20511;-64
2023/05/25 01:05:33;;;;;;;8.03;4.90;;;;;;;19.53;100.00;101324.66;2065965;28;20426;-63
2023/05/25 01:06:35;;;;;;;7.80;5.23;;;;;;;19.54;100.00;101326.22;2065695;28;20456;-63
2023/05/25 01:07:38;;;;;;;6.50;4.87;;;;;;;19.52;100.00;101323.09;2065893;28;20418;-63
2023/05/25 01:08:43;;;;;;;6.23;4.83;;;;;;;19.53;100.00;101321.84;2058059;28;20422;-63
2023/05/25 01:09:44;;;;;;;8.17;4.93;;;;;;;19.43;100.00;101315.50;2071703;28;20428;-64
2023/05/25 01:10:48;;;;;;;7.23;5.37;;;;;;;19.48;100.00;101323.28;2073315;28;20428;-63
2023/05/25 01:11:50;;;;;;;6.83;5.50;;;;;;;19.45;100.00;101323.47;2057924;28;20470;-64
2023/05/25 01:12:53;;;;;;;7.80;5.30;;;;;;;19.41;100.00;101342.53;2061354;28;20528;-64
2023/05/25 01:13:53;;;;;;;8.67;5.33;;;;;;;19.36;100.00;101317.88;2065606;28;20429;-64
2023/05/25 01:14:54;;;;;;;5.83;4.73;;;;;;;19.38;100.00;101324.56;2065444;28;20512;-64
2023/05/25 01:15:55;;;;;;;8.10;5.23;;;;;;;19.36;100.00;101329.13;2065756;28;20186;-64
2023/05/25 01:16:57;;;;;;;6.93;5.20;;;;;;;18.96;100.00;101272.44;2065727;28;20414;-64
2023/05/25 01:17:58;;;;;;;7.93;5.30;;;;;;;19.19;100.00;101313.88;2065505;28;20487;-63
2023/05/25 01:18:58;;;;;;;10.73;6.13;;;;;;;19.22;100.00;101327.00;2058422;28;20452;-63
2023/05/25 01:20:00;;;;;;;7.10;5.50;;;;;;;19.21;100.00;101323.38;2062878;28;20663;-64
2023/05/25 01:21:23;;;;;;;7.73;5.30;;;;;;;19.18;100.00;101329.19;2061093;28;20190;-63
2023/05/25 01:22:44;;;;;;;8.77;5.40;;;;;;;19.20;100.00;101323.84;2064086;28;20531;-63
2023/05/25 01:24:11;;;;;;;7.63;4.60;;;;;;;19.15;100.00;101319.66;2057083;28;20979;-64
2023/05/25 01:25:21;;;;;;;8.73;5.33;;;;;;;19.08;100.00;101316.44;2056148;28;20524;-63
2023/05/25 01:26:26;;;;;;;7.03;4.83;;;;;;;19.10;100.00;101325.94;2065208;28;20543;-64
2023/05/25 01:27:38;;;;;;;9.50;5.43;;;;;;;19.11;100.00;101330.28;2065332;28;20500;-63
2023/05/25 01:28:45;;;;;;;8.50;5.07;;;;;;;19.11;100.00;101340.75;2057410;28;20407;-64
2023/05/25 01:29:47;;;;;;;7.70;5.30;;;;;;;19.13;100.00;101329.81;2057519;28;20407;-63
2023/05/25 01:30:48;;;;;;;11.23;5.90;;;;;;;19.09;100.00;101332.03;2057651;28;20425;-64
2023/05/25 01:31:50;;;;;;;8.73;5.60;;;;;;;19.08;100.00;101325.63;2057720;28;20509;-64
2023/05/25 01:32:52;;;;;;;9.10;6.17;;;;;;;19.06;100.00;101322.50;2057724;28;20525;-64
2023/05/25 01:33:53;;;;;;;9.33;5.33;;;;;;;19.06;100.00;101335.75;2057299;28;20449;-63
2023/05/25 01:34:56;;;;;;;8.67;6.10;;;;;;;19.05;100.00;101320.16;2057043;28;21089;-64
2023/05/25 01:35:59;;;;;;;6.73;5.70;;;;;;;19.05;100.00;101315.34;2057487;28;20457;-64
2023/05/25 01:37:00;;;;;;;8.10;5.77;;;;;;;18.01;100.00;101166.69;2060040;28;20450;-64
2023/05/25 01:38:00;;;;;;;7.67;5.73;;;;;;;18.09;100.00;101191.88;2063897;28;20425;-64
2023/05/25 01:39:01;;;;;;;7.93;5.50;;;;;;;18.73;100.00;101296.38;2057261;28;20176;-63
2023/05/25 01:40:01;;;;;;;7.63;5.83;;;;;;;19.02;100.00;101329.53;2065622;28;20181;-63
2023/05/25 01:41:02;;;;;;;8.00;5.90;;;;;;;18.97;100.00;101319.72;2065261;28;20664;-64
2023/05/25 01:42:02;;;;;;;8.53;5.50;;;;;;;18.98;100.00;101328.94;2059340;28;20281;-63
2023/05/25 01:43:03;;;;;;;8.97;5.70;;;;;;;18.19;100.00;101206.69;2057695;28;20253;-64
2023/05/25 01:44:06;;;;;;;7.17;5.43;;;;;;;18.76;100.00;101297.47;2057591;28;20203;-64
2023/05/25 01:45:08;;;;;;;6.50;5.30;;;;;;;17.99;100.00;101183.97;2056962;28;20205;-64
2023/05/25 01:46:34;;;;;;;6.33;5.10;;;;;;;17.78;100.00;101157.66;2059502;28;20413;-64
2023/05/25 01:47:40;;;;;;;6.43;5.40;;;;;;;18.89;100.00;101337.38;2065232;28;20463;-63
2023/05/25 01:49:16;;;;;;;7.73;5.60;;;;;;;18.86;100.00;101329.91;2061087;28;20887;-64
2023/05/25 01:50:46;;;;;;;8.50;5.73;;;;;;;18.84;100.00;101321.94;2064286;28;20453;-63
2023/05/25 01:52:17;;;;;;;8.77;5.30;;;;;;;18.79;100.00;101325.38;2066141;28;20414;-63
2023/05/25 01:53:23;;;;;;;11.60;5.97;;;;;;;18.80;100.00;101331.78;2065485;28;20943;-63
2023/05/25 01:54:33;;;;;;;7.23;5.53;;;;;;;18.78;100.00;101331.50;2065333;28;20479;-63
2023/05/25 01:55:40;;;;;;;9.23;5.73;;;;;;;18.11;100.00;101238.34;2065022;28;20854;-63
2023/05/25 01:56:45;;;;;;;8.03;5.93;;;;;;;18.54;100.00;101305.31;2062223;28;20973;-63
2023/05/25 01:57:49;;;;;;;11.77;6.30;;;;;;;18.50;100.00;101311.09;2059573;28;20461;-64
2023/05/25 01:58:51;;;;;;;7.70;5.43;;;;;;;18.65;100.00;101336.50;2064916;28;20405;-63
2023/05/25 01:59:58;;;;;;;8.30;5.80;;;;;;;18.64;100.00;101326.53;2065413;28;20417;-64
2023/05/25 02:00:59;;;;;;;9.00;5.90;;;;;;;18.64;100.00;101332.94;2064922;28;20499;-63
2023/05/25 02:02:02;;;;;;;9.37;5.67;;;;;;;18.65;100.00;101328.88;2057421;28;20932;-64
2023/05/25 02:03:03;;;;;;;8.83;5.70;;;;;;;18.66;100.00;101336.03;2064826;28;20298;-64
2023/05/25 02:04:04;;;;;;;7.00;5.70;;;;;;;18.63;100.00;101331.34;2059084;28;20520;-63
2023/05/25 02:05:05;;;;;;;9.67;6.33;;;;;;;18.62;100.00;101329.78;2057459;28;20420;-64
2023/05/25 02:06:06;;;;;;;6.70;5.67;;;;;;;18.63;100.00;101336.19;2059477;28;20187;-64
2023/05/25 02:07:07;;;;;;;7.87;6.30;;;;;;;18.59;100.00;101330.75;2065368;28;20439;-63
2023/05/25 02:08:07;;;;;;;9.83;6.03;;;;;;;18.43;100.00;101305.03;2063287;28;20955;-64
2023/05/25 02:09:08;;;;;;;11.27;6.43;;;;;;;18.59;100.00;101329.97;2056828;28;20185;-63
2023/05/25 02:10:08;;;;;;;10.33;6.17;;;;;;;18.58;100.00;101331.22;2065504;28;20179;-63
2023/05/25 02:11:13;;;;;;;10.67;6.80;;;;;;;17.81;100.00;101216.84;2057977;28;20187;-64
2023/05/25 02:12:13;;;;;;;8.63;6.10;;;;;;;18.55;100.00;101330.13;2063703;28;20188;-64
2023/05/25 02:13:14;;;;;;;7.63;6.07;;;;;;;17.47;100.00;101175.09;2059841;28;20442;-63
2023/05/25 02:14:15;;;;;;;7.17;5.73;;;;;;;18.50;100.00;101332.78;2060630;28;20640;-64
2023/05/25 02:15:17;;;;;;;8.53;6.17;;;;;;;18.49;100.00;101340.44;2061146;28;20187;-63
2023/05/25 02:16:18;;;;;;;11.37;6.20;;;;;;;18.48;100.00;101333.22;2057250;28;20955;-64
2023/05/25 02:17:18;;;;;;;9.50;6.40;;;;;;;17.59;100.00;101197.38;2057610;28;20867;-63
2023/05/25 02:18:19;;;;;;;8.30;5.80;;;;;;;18.29;100.00;101306.44;2065163;28;20560;-63
2023/05/25 02:19:19;;;;;;;9.40;5.90;;;;;;;17.42;100.00;101174.47;2064932;28;20201;-64
2023/05/25 02:20:20;;;;;;;7.03;5.90;;;;;;;18.48;100.00;101332.47;2065269;28;20569;-64
2023/05/25 02:21:20;;;;;;;9.07;5.73;;;;;;;18.46;100.00;101324.53;2059230;28;20226;-64
2023/05/25 02:22:22;;;;;;;7.77;5.80;;;;;;;18.44;100.00;101331.84;2064903;28;20190;-63
2023/05/25 02:23:22;;;;;;;6.70;5.83;;;;;;;18.44;100.00;101337.47;2068047;28;20198;-64
2023/05/25 02:24:23;;;;;;;10.27;6.20;;;;;;;18.43;100.00;101335.91;2059601;28;20472;-64
2023/05/25 02:25:24;;;;;;;8.93;5.87;;;;;;;18.36;100.00;101327.78;2063377;28;20195;-64
2023/05/25 02:26:25;;;;;;;9.97;6.20;;;;;;;17.93;100.00;101264.38;2057286;28;20427;-64
2023/05/25 02:27:25;;;;;;;9.63;6.20;;;;;;;18.41;100.00;101338.38;2056862;28;20568;-64
2023/05/25 02:28:25;;;;;;;10.63;5.80;;;;;;;18.34;100.00;101330.28;2056679;28;20576;-64
2023/05/25 02:29:26;;;;;;;11.50;5.87;;;;;;;18.38;100.00;101339.34;2062458;28;20721;-63
2023/05/25 02:30:26;;;;;;;6.93;5.70;;;;;;;18.37;100.00;101346.97;2065318;28;20186;-63
2023/05/25 02:31:27;;;;;;;6.90;6.00;;;;;;;18.36;100.00;101353.03;2064891;28;20324;-64
2023/05/25 02:32:28;;;;;;;8.20;5.47;;;;;;;18.27;100.00;101353.03;2065344;28;20179;-63
2023/05/25 02:33:28;;;;;;;8.53;4.90;;;;;;;18.22;100.00;101360.03;2065110;28;20174;-63
2023/05/25 02:34:29;;;;;;;7.60;5.07;;;;;;;18.18;100.00;101356.63;2064866;28;20492;-64
2023/05/25 02:35:29;;;;;;;14.57;5.93;;;;;;;18.13;100.00;101355.19;2057191;28;20185;-63
2023/05/25 02:36:30;;;;;;;8.23;5.77;;;;;;;18.11;100.00;101356.16;2064118;28;20182;-64
2023/05/25 02:37:31;;;;;;;8.73;6.00;;;;;;;18.09;100.00;101356.59;2058998;28;20198;-63
2023/05/25 02:38:31;;;;;;;7.93;5.57;;;;;;;17.93;100.00;101342.88;2056356;28;20184;-63
2023/05/25 02:39:31;;;;;;;10.77;5.87;;;;;;;18.01;100.00;101358.16;2056623;28;20205;-64
2023/05/25 02:40:32;;;;;;;14.43;6.17;;;;;;;18.00;100.00;101359.41;2059407;28;20190;-64
2023/05/25 02:41:32;;;;;;;9.40;5.73;;;;;;;17.97;100.00;101356.75;2063817;28;20167;-64
2023/05/25 02:42:33;;;;;;;9.83;5.80;;;;;;;17.51;100.00;101288.59;2057240;28;20174;-63
2023/05/25 02:43:33;;;;;;;7.17;5.50;;;;;;;17.93;100.00;101365.31;2057056;28;20273;-63
2023/05/25 02:44:34;;;;;;;9.13;5.33;;;;;;;17.92;100.00;101374.97;2057270;28;20191;-63
2023/05/25 02:45:34;;;;;;;11.30;5.77;;;;;;;17.90;100.00;101366.22;2061931;28;20184;-63
2023/05/25 02:46:35;;;;;;;8.67;6.00;;;;;;;17.90;100.00;101366.22;2065066;28;20183;-64
2023/05/25 02:47:35;;;;;;;9.40;6.40;;;;;;;16.89;100.00;101208.72;2062228;28;20185;-63
2023/05/25 02:48:36;;;;;;;7.63;5.40;;;;;;;17.91;100.00;101367.78;2056643;28;20175;-63
2023/05/25 02:49:36;;;;;;;10.43;6.37;;;;;;;17.92;100.00;101362.97;2056531;28;20175;-63
2023/05/25 02:50:36;;;;;;;6.87;5.87;;;;;;;17.91;100.00;101364.22;2064944;28;20186;-63
2023/05/25 02:51:37;;;;;;;6.47;5.70;;;;;;;17.85;100.00;101361.25;2064910;28;20182;-64
2023/05/25 02:52:37;;;;;;;9.50;6.13;;;;;;;17.88;100.00;101369.50;2059107;28;20191;-64
2023/05/25 02:53:37;;;;;;;14.10;6.30;;;;;;;17.84;100.00;101356.88;2068915;28;20195;-63
2023/05/25 02:54:38;;;;;;;14.73;6.43;;;;;;;17.87;100.00;101364.38;2072424;28;20753;-64
2023/05/25 02:55:39;;;;;;;7.73;6.70;;;;;;;17.86;100.00;101370.44;2056833;28;20201;-63
2023/05/25 02:56:41;;;;;;;8.30;6.10;;;;;;;17.78;100.00;101367.91;2058312;28;20183;-64
2023/05/25 02:57:41;;;;;;;8.93;5.70;;;;;;;17.77;100.00;101367.59;2064837;28;20206;-64
2023/05/25 02:58:42;;;;;;;8.37;5.50;;;;;;;17.77;100.00;101366.34;2064874;28;20422;-64
2023/05/25 02:59:42;;;;;;;6.17;5.57;;;;;;;17.25;100.00;101285.25;2057003;28;20230;-64
2023/05/25 03:00:43;;;;;;;8.27;5.90;;;;;;;17.68;100.00;101362.78;2057010;28;20212;-63
2023/05/25 03:01:44;;;;;;;7.63;5.77;;;;;;;17.71;100.00;101361.81;2061571;28;20197;-64
2023/05/25 03:02:45;;;;;;;6.70;6.10;;;;;;;17.72;100.00;101362.63;2065240;28;20441;-64
2023/05/25 03:03:46;;;;;;;9.13;5.57;;;;;;;17.72;100.00;101371.03;2064780;28;20197;-64
2023/05/25 03:04:48;;;;;;;9.30;6.60;;;;;;;17.42;100.00;101325.78;2065033;28;20457;-64
2023/05/25 03:05:49;;;;;;;11.03;5.90;;;;;;;17.62;100.00;101356.22;2064969;28;20774;-63
2023/05/25 03:06:49;;;;;;;6.87;5.57;;;;;;;17.68;100.00;101373.97;2057412;28;20467;-64
2023/05/25 03:07:50;;;;;;;7.93;5.87;;;;;;;17.67;100.00;101378.03;2056908;28;20671;-63
2023/05/25 03:08:50;;;;;;;8.67;5.70;;;;;;;17.67;100.00;101382.84;2059761;28;20274;-63
2023/05/25 03:09:51;;;;;;;6.83;5.33;;;;;;;17.67;100.00;101377.25;2064057;28;20184;-64
2023/05/25 03:10:52;;;;;;;8.87;6.00;;;;;;;17.58;100.00;101358.38;2062603;28;20190;-63
2023/05/25 03:11:52;;;;;;;8.47;6.07;;;;;;;17.71;100.00;101377.88;2057638;28;20540;-64
2023/05/25 03:12:52;;;;;;;7.90;6.43;;;;;;;17.71;100.00;101378.66;2064958;28;20268;-63
2023/05/25 03:13:53;;;;;;;8.07;6.40;;;;;;;17.70;100.00;101387.53;2057147;28;20720;-64
2023/05/25 03:14:53;;;;;;;9.53;6.60;;;;;;;17.73;100.00;101392.19;2056532;28;20701;-63
2023/05/25 03:15:54;;;;;;;7.10;5.83;;;;;;;17.69;100.00;101381.13;2062130;28;20205;-64
2023/05/25 03:16:54;;;;;;;9.30;6.40;;;;;;;17.67;100.00;101378.78;2060441;28;20261;-63
2023/05/25 03:17:59;;;;;;;8.70;6.40;;;;;;;17.79;100.00;101393.94;2059680;28;20217;-64
2023/05/25 03:19:00;;;;;;;9.60;6.10;;;;;;;17.79;100.00;101388.34;2061801;28;20187;-64
2023/05/25 03:20:01;;;;;;;8.30;6.10;;;;;;;17.83;100.00;101385.38;2057716;28;20948;-63
2023/05/25 03:21:01;;;;;;;10.00;6.90;;;;;;;17.85;100.00;101394.13;2063963;28;20287;-63
2023/05/25 03:22:02;;;;;;;7.33;6.63;;;;;;;17.83;100.00;101406.56;2056922;28;20171;-63
2023/05/25 03:23:03;;;;;;;9.83;6.90;;;;;;;16.94;100.00;101238.91;2056298;28;20258;-64
2023/05/25 03:24:03;;;;;;;11.10;6.77;;;;;;;17.92;100.00;101388.22;2062167;28;20508;-63
2023/05/25 03:25:04;;;;;;;8.57;6.67;;;;;;;17.90;100.00;101379.50;2064687;28;20235;-63
2023/05/25 03:26:05;;;;;;;10.10;6.20;;;;;;;17.94;100.00;101392.09;2061305;28;20213;-64
2023/05/25 03:27:05;;;;;;;8.27;6.33;;;;;;;17.98;100.00;101386.34;2056712;28;20561;-63
2023/05/25 03:28:05;;;;;;;7.60;6.70;;;;;;;17.98;100.00;101389.16;2057522;28;20179;-64
2023/05/25 03:29:06;;;;;;;7.33;6.57;;;;;;;17.99;100.00;101388.69;2064389;28;20541;-63
2023/05/25 03:30:07;;;;;;;7.90;6.40;;;;;;;17.40;100.00;101287.50;2056827;28;20241;-64
2023/05/25 03:31:08;;;;;;;8.80;6.07;;;;;;;18.06;100.00;101384.81;2063541;28;20193;-64
2023/05/25 03:32:09;;;;;;;8.97;6.70;;;;;;;18.07;100.00;101389.19;2064592;28;20424;-64
2023/05/25 03:33:12;;;;;;;10.80;6.57;;;;;;;18.06;100.00;101382.78;2059759;28;20577;-63
2023/05/25 03:34:12;;;;;;;9.80;6.83;;;;;;;18.13;100.00;101390.91;2056689;28;20206;-63
2023/05/25 03:35:13;;;;;;;8.50;6.10;;;;;;;18.15;100.00;101388.41;2059176;28;20425;-63
2023/05/25 03:36:16;;;;;;;13.00;6.97;;;;;;;18.19;100.00;101392.59;2064704;28;20268;-63
2023/05/25 03:37:16;;;;;;;10.23;6.17;;;;;;;18.23;100.00;101388.88;2064825;28;20177;-64
2023/05/25 03:38:17;;;;;;;11.83;6.13;;;;;;;18.11;100.00;101372.97;2064700;28;20421;-64
2023/05/25 03:39:17;;;;;;;14.33;6.90;;;;;;;18.21;100.00;101389.34;2056797;28;20196;-64
2023/05/25 03:40:18;;;;;;;14.77;7.20;;;;;;;18.18;100.00;101398.69;2063304;28;20190;-64
2023/05/25 03:41:18;;;;;;;20.57;7.97;;;;;;;18.13;100.00;101393.72;2064515;28;20222;-64
2023/05/25 03:42:19;;;;;;;15.20;7.30;;;;;;;18.02;100.00;101396.16;2064603;28;20232;-64
2023/05/25 03:43:19;;;;;;;10.27;7.23;;;;;;;17.98;100.00;101394.75;2064047;28;20237;-63
2023/05/25 03:44:20;;;;;;;9.70;6.50;;;;;;;17.95;100.00;101396.47;2064179;28;20170;-64
2023/05/25 03:45:20;;;;;;;12.00;6.90;;;;;;;18.02;100.00;101399.75;2064619;28;20181;-64
2023/05/25 03:46:21;;;;;;;17.70;7.17;;;;;;;18.08;100.00;101418.78;2064902;28;20186;-64
2023/05/25 03:47:21;;;;;;;12.10;7.10;;;;;;;18.03;100.00;101397.75;2056800;28;20209;-63
2023/05/25 03:48:22;;;;;;;11.47;7.07;;;;;;;18.13;100.00;101406.94;2056623;28;20190;-63
2023/05/25 03:49:22;;;;;;;11.83;7.20;;;;;;;18.13;100.00;101402.13;2061952;28;20276;-64
2023/05/25 03:50:22;;;;;;;12.33;6.83;;;;;;;17.78;100.00;101351.09;2060297;28;20186;-63
2023/05/25 03:51:23;;;;;;;14.50;7.43;;;;;;;18.15;100.00;101408.03;2056782;28;20330;-64
2023/05/25 03:52:23;;;;;;;12.60;7.17;;;;;;;18.14;100.00;101410.06;2058755;28;20693;-63
2023/05/25 03:53:24;;;;;;;10.70;6.63;;;;;;;18.16;100.00;101412.41;2064224;28;20805;-63
2023/05/25 03:54:25;;;;;;;9.43;6.27;;;;;;;18.21;100.00;101411.03;2064741;28;20194;-64
2023/05/25 03:55:25;;;;;;;10.70;6.87;;;;;;;18.27;100.00;101411.97;2064598;28;20193;-64
2023/05/25 03:56:26;;;;;;;8.60;6.33;;;;;;;17.84;100.00;101340.06;2064605;28;20217;-64
2023/05/25 03:57:27;;;;;;;11.57;7.80;;;;;;;18.14;100.00;101375.63;2064725;28;20212;-64
2023/05/25 03:58:27;;;;;;;8.27;6.13;;;;;;;18.39;100.00;101406.22;2059962;28;20734;-64
2023/05/25 03:59:28;;;;;;;7.70;6.27;;;;;;;17.85;100.00;101324.78;2055693;28;20848;-63
2023/05/25 04:00:29;;;;;;;11.07;6.27;;;;;;;18.29;100.00;101370.97;2056083;28;20681;-63
2023/05/25 04:01:29;;;;;;;9.37;6.10;;;;;;;18.57;100.00;101400.59;2057694;28;20178;-64
2023/05/25 04:02:29;;;;;;;9.17;6.20;;;;;;;18.61;100.00;101401.22;2065890;28;20282;-64
2023/05/25 04:03:31;;;;;;;8.50;5.93;;;;;;;18.63;100.00;101400.78;2069514;28;20619;-64
2023/05/25 04:04:31;;;;;;;8.50;6.40;;;;;;;18.69;100.00;101394.06;2064448;28;20269;-64
2023/05/25 04:05:32;;;;;;;9.40;6.10;;;;;;;18.73;100.00;101394.66;2067121;28;20431;-64
2023/05/25 04:06:35;;;;;;;13.30;7.30;;;;;;;18.69;100.00;101384.84;2069554;28;20277;-64
2023/05/25 04:07:36;;;;;;;10.23;6.43;;;;;;;18.36;100.00;101320.16;2066392;28;20181;-63
2023/05/25 04:08:39;;;;;;;7.73;6.10;;;;;;;18.88;100.00;101400.44;2065814;28;20447;-64
2023/05/25 04:09:40;;;;;;;9.17;6.00;;;;;;;18.94;100.00;101395.72;2066732;28;20774;-64
2023/05/25 04:10:40;;;;;;;7.90;6.10;;;;;;;18.96;100.00;101404.47;2067042;28;20615;-64
2023/05/25 04:11:40;;;;;;;6.90;6.20;;;;;;;18.97;100.00;101392.75;2066774;28;20611;-64
2023/05/25 04:12:41;;;;;;;7.87;6.40;;;;;;;19.00;100.00;101396.66;2070468;28;20268;-64
2023/05/25 04:13:42;;;;;;;7.83;6.57;;;;;;;19.04;100.00;101400.84;2064508;28;20201;-63
2023/05/25 04:14:42;;;;;;;8.57;6.30;;;;;;;19.08;100.00;101393.03;2068930;28;20749;-64
2023/05/25 04:15:43;;;;;;;9.93;6.73;;;;;;;19.02;100.00;101386.50;2066210;28;20202;-64
2023/05/25 04:16:44;;;;;;;7.27;6.13;;;;;;;19.12;100.00;101401.28;2064868;28;20196;-63
2023/05/25 04:17:45;;;;;;;7.07;5.93;;;;;;;19.16;100.00;101396.28;2065755;28;20284;-63
2023/05/25 04:18:45;;;;;;;10.30;6.27;;;;;;;19.21;100.00;101396.44;2070730;28;20434;-63
2023/05/25 04:19:45;;;;;;;8.00;6.33;;;;;;;19.23;100.00;101398.78;2064104;28;20956;-64
2023/05/25 04:20:46;;;;;;;8.77;6.03;;;;;;;19.26;100.00;101389.44;2068847;28;20185;-63
2023/05/25 04:21:46;;;;;;;9.20;6.27;;;;;;;19.29;100.00;101400.50;2069988;28;20250;-64
2023/05/25 04:22:47;;;;;;;8.63;6.20;;;;;;;19.33;100.00;101403.91;2069943;28;20623;-63
2023/05/25 04:23:47;;;;;;;8.57;6.10;;;;;;;19.39;100.00;101407.66;2067029;28;20578;-64
2023/05/25 04:24:47;;;;;;;6.57;5.83;;;;;;;19.42;100.00;101405.91;2068429;28;20584;-64
2023/05/25 04:25:50;;;;;;;7.63;6.33;;;;;;;19.46;100.00;101414.97;2070449;28;20650;-63
2023/05/25 04:26:50;;;;;;;9.73;6.63;;;;;;;19.49;100.00;101406.34;2066828;28;20217;-64
2023/05/25 04:27:52;;;;;;;7.57;6.10;;;;;;;19.51;100.00;101406.69;2068352;28;20430;-64
2023/05/25 04:28:54;;;;;;;10.60;6.20;;;;;;;19.54;100.00;101404.94;2066422;28;20189;-64
2023/05/25 04:29:56;;;;;;;8.70;6.00;;;;;;;19.28;100.00;101364.44;2066525;28;20462;-64
2023/05/25 04:30:56;;;;;;;9.50;5.83;;;;;;;19.38;100.00;101369.56;2066236;28;20961;-64
2023/05/25 04:31:57;;;;;;;11.03;6.10;;;;;;;19.65;100.00;101405.22;2068180;28;20788;-64
2023/05/25 04:33:01;;;;;;;9.57;6.80;;;;;;;19.65;100.00;101408.03;2067085;28;20189;-64
2023/05/25 04:34:02;;;;;;;8.20;6.30;;;;;;;19.65;100.00;101408.03;2062277;28;20195;-64
2023/05/25 04:35:04;;;;;;;6.20;5.60;;;;;;;19.71;100.00;101412.50;2068828;28;20949;-64
2023/05/25 04:36:05;;;;;;;8.00;6.00;;;;;;;19.78;100.00;101412.16;2067308;28;20431;-63
2023/05/25 04:37:07;;;;;;;7.13;6.00;;;;;;;19.79;100.00;101413.72;2070234;28;20445;-64
2023/05/25 04:38:11;;;;;;;6.57;5.97;;;;;;;19.84;100.00;101415.09;2069733;28;20184;-64
2023/05/25 04:39:11;;;;;;;11.57;6.10;;;;;;;19.76;100.00;101397.03;2072466;28;20455;-64
2023/05/25 04:40:13;;;;;;;7.73;6.60;;;;;;;19.86;100.00;101404.16;2074565;28;20532;-64
2023/05/25 04:41:14;;;;;;;11.23;6.43;;;;;;;19.91;100.00;101421.13;2071958;28;20224;-63
2023/05/25 04:42:15;;;;;;;9.67;6.17;;;;;;;19.96;100.00;101419.72;2071861;28;20847;-64
2023/05/25 04:43:19;;;;;;;7.80;6.07;;;;;;;19.99;100.00;101419.53;2069428;28;20441;-64
2023/05/25 04:44:19;;;;;;;10.23;5.93;;;;;;;19.80;100.00;101389.19;2068383;28;20457;-63